createdAt,value
2023-03-02T00:00:01.867Z,64.79
2023-03-02T00:01:01.825Z,65.03
2023-03-02T00:02:01.865Z,65.13
2023-03-02T00:03:01.848Z,65.23
2023-03-02T00:04:01.839Z,65.44
2023-03-02T00:05:01.807Z,65.65
2023-03-02T00:06:01.774Z,65.75
2023-03-02T00:07:01.769Z,65.75
2023-03-02T00:08:01.750Z,65.75
2023-03-02T00:09:01.747Z,65.65
2023-03-02T00:10:01.716Z,65.75
2023-03-02T00:11:01.729Z,65.75
2023-03-02T00:12:01.719Z,65.86
2023-03-02T00:13:01.686Z,65.89
2023-03-02T00:14:01.695Z,65.89
2023-03-02T00:15:01.699Z,66.20
2023-03-02T00:16:01.707Z,66.48
2023-03-02T00:17:01.639Z,66.17
2023-03-02T00:18:01.641Z,66.06
2023-03-02T00:19:02.042Z,66.06
2023-03-02T00:20:01.621Z,66.17
2023-03-02T00:21:01.616Z,66.17
2023-03-02T00:22:01.654Z,66.20
2023-03-02T00:23:01.581Z,66.20
2023-03-02T00:24:01.569Z,66.20
2023-03-02T00:25:01.560Z,66.20
2023-03-02T00:26:01.551Z,66.20
2023-03-02T00:27:01.570Z,66.20
2023-03-02T00:28:01.543Z,66.20
2023-03-02T00:29:01.513Z,66.20
2023-03-02T00:30:01.554Z,66.20
2023-03-02T00:31:01.527Z,66.20
2023-03-02T00:32:01.530Z,66.20
2023-03-02T00:33:01.481Z,66.30
2023-03-02T00:34:01.466Z,66.30
2023-03-02T00:35:01.470Z,66.41
2023-03-02T00:36:01.472Z,66.51
2023-03-02T00:37:01.455Z,66.54
2023-03-02T00:38:01.423Z,66.54
2023-03-02T00:39:02.396Z,66.65
2023-03-02T00:40:01.462Z,66.86
2023-03-02T00:41:01.424Z,66.96
2023-03-02T00:42:01.362Z,67.17
2023-03-02T00:43:01.353Z,67.27
2023-03-02T00:44:02.793Z,67.17
2023-03-02T00:45:01.357Z,67.27
2023-03-02T00:46:01.334Z,67.17
2023-03-02T00:47:01.376Z,67.27
2023-03-02T00:48:01.298Z,67.27
2023-03-02T00:49:01.302Z,67.27
2023-03-02T00:50:01.282Z,67.38
2023-03-02T00:51:01.261Z,67.38
2023-03-02T00:52:01.271Z,67.27
2023-03-02T00:53:01.240Z,67.17
2023-03-02T00:54:01.230Z,67.17
2023-03-02T00:55:01.253Z,67.27
2023-03-02T00:56:02.161Z,67.24
2023-03-02T00:57:01.242Z,67.17
2023-03-02T00:58:01.197Z,67.07
2023-03-02T00:59:01.191Z,67.07
2023-03-02T01:00:01.178Z,67.07
2023-03-02T01:01:01.158Z,67.07
2023-03-02T01:02:01.193Z,67.17
2023-03-02T01:03:01.178Z,67.38
2023-03-02T01:04:01.136Z,67.48
2023-03-02T01:05:01.175Z,67.48
2023-03-02T01:06:01.099Z,67.58
2023-03-02T01:07:01.106Z,67.48
2023-03-02T01:08:01.080Z,67.58
2023-03-02T01:09:01.107Z,67.69
2023-03-02T01:10:01.059Z,67.69
2023-03-02T01:11:01.060Z,67.90
2023-03-02T01:12:01.075Z,67.86
2023-03-02T01:13:01.024Z,67.55
2023-03-02T01:14:01.009Z,67.45
2023-03-02T01:15:01.030Z,67.35
2023-03-02T01:16:01.098Z,67.24
2023-03-02T01:17:01.023Z,67.14
2023-03-02T01:18:00.986Z,67.24
2023-03-02T01:19:00.977Z,67.27
2023-03-02T01:20:00.981Z,67.38
2023-03-02T01:21:00.965Z,67.38
2023-03-02T01:22:00.954Z,67.38
2023-03-02T01:23:00.943Z,67.17
2023-03-02T01:24:00.933Z,67.17
2023-03-02T01:25:00.921Z,67.07
2023-03-02T01:26:01.835Z,67.07
2023-03-02T01:27:00.891Z,67.17
2023-03-02T01:28:00.879Z,67.27
2023-03-02T01:29:00.889Z,67.38
2023-03-02T01:30:02.344Z,67.38
2023-03-02T01:31:00.881Z,67.27
2023-03-02T01:32:00.972Z,67.38
2023-03-02T01:33:00.816Z,67.48
2023-03-02T01:34:00.836Z,67.61
2023-03-02T01:35:01.618Z,67.72
2023-03-02T01:36:00.861Z,67.82
2023-03-02T01:37:00.777Z,67.82
2023-03-02T01:38:00.758Z,67.72
2023-03-02T01:39:00.786Z,67.61
2023-03-02T01:40:00.753Z,67.61
2023-03-02T01:41:00.734Z,67.72
2023-03-02T01:42:00.732Z,67.82
2023-03-02T01:43:00.730Z,67.93
2023-03-02T01:44:00.701Z,67.82
2023-03-02T01:45:00.693Z,67.72
2023-03-02T01:46:00.692Z,67.61
2023-03-02T01:47:00.658Z,67.61
2023-03-02T01:48:00.658Z,67.72
2023-03-02T01:49:00.670Z,67.72
2023-03-02T01:50:00.624Z,67.61
2023-03-02T01:51:00.651Z,67.72
2023-03-02T01:52:00.600Z,67.61
2023-03-02T01:53:00.623Z,67.61
2023-03-02T01:54:00.579Z,67.72
2023-03-02T01:55:00.581Z,67.85
2023-03-02T01:56:00.557Z,67.96
2023-03-02T01:57:00.627Z,67.96
2023-03-02T01:58:00.528Z,67.96
2023-03-02T01:59:00.532Z,68.07
2023-03-02T02:00:00.529Z,68.07
2023-03-02T02:01:00.526Z,68.07
2023-03-02T02:02:00.550Z,67.96
2023-03-02T02:03:00.488Z,68.07
2023-03-02T02:04:00.515Z,68.07
2023-03-02T02:05:00.468Z,68.07
2023-03-02T02:06:00.452Z,68.17
2023-03-02T02:07:00.440Z,68.17
2023-03-02T02:08:00.469Z,68.17
2023-03-02T02:09:00.418Z,68.27
2023-03-02T02:10:00.407Z,68.38
2023-03-02T02:11:00.401Z,68.48
2023-03-02T02:12:00.400Z,68.59
2023-03-02T02:13:00.385Z,68.59
2023-03-02T02:14:00.367Z,68.79
2023-03-02T02:15:00.366Z,68.90
2023-03-02T02:16:01.315Z,68.90
2023-03-02T02:17:00.439Z,69.00
2023-03-02T02:18:00.331Z,69.00
2023-03-02T02:19:00.321Z,68.79
2023-03-02T02:20:00.306Z,68.79
2023-03-02T02:21:02.321Z,69.10
2023-03-02T02:22:00.276Z,69.42
2023-03-02T02:23:00.289Z,69.28
2023-03-02T02:24:00.269Z,69.18
2023-03-02T02:25:00.252Z,69.07
2023-03-02T02:26:00.225Z,69.18
2023-03-02T02:27:00.216Z,69.18
2023-03-02T02:28:00.245Z,68.87
2023-03-02T02:29:00.193Z,68.66
2023-03-02T02:30:00.195Z,68.55
2023-03-02T02:31:00.167Z,68.32
2023-03-02T02:32:00.768Z,68.24
2023-03-02T02:33:00.412Z,68.21
2023-03-02T02:34:00.153Z,68.03
2023-03-02T02:35:00.129Z,68.00
2023-03-02T02:36:00.632Z,68.00
2023-03-02T02:37:00.368Z,67.90
2023-03-02T02:38:00.743Z,68.00
2023-03-02T02:39:00.112Z,68.10
2023-03-02T02:40:00.110Z,67.90
2023-03-02T02:41:00.210Z,67.79
2023-03-02T02:42:00.528Z,67.90
2023-03-02T02:43:01.495Z,67.79
2023-03-02T02:44:00.055Z,67.90
2023-03-02T02:45:00.021Z,67.79
2023-03-02T02:46:00.118Z,67.90
2023-03-02T02:47:00.013Z,67.90
2023-03-02T02:47:59.988Z,67.90
2023-03-02T02:49:01.459Z,67.79
2023-03-02T02:50:00.049Z,67.69
2023-03-02T02:50:59.960Z,67.58
2023-03-02T02:52:00.739Z,67.58
2023-03-02T02:52:59.947Z,67.69
2023-03-02T02:53:59.963Z,67.90
2023-03-02T02:54:59.941Z,67.90
2023-03-02T02:55:59.885Z,67.82
2023-03-02T02:56:59.886Z,67.82
2023-03-02T02:57:59.896Z,68.03
2023-03-02T02:58:59.882Z,67.93
2023-03-02T03:00:00.032Z,67.93
2023-03-02T03:01:01.360Z,68.03
2023-03-02T03:01:59.829Z,68.21
2023-03-02T03:03:01.276Z,68.10
2023-03-02T03:03:59.800Z,67.69
2023-03-02T03:04:59.792Z,67.61
2023-03-02T03:05:59.798Z,67.72
2023-03-02T03:06:59.782Z,68.13
2023-03-02T03:07:59.783Z,68.42
2023-03-02T03:08:59.757Z,68.21
2023-03-02T03:09:59.814Z,67.90
2023-03-02T03:10:59.746Z,67.90
2023-03-02T03:12:01.205Z,67.69
2023-03-02T03:12:59.726Z,67.38
2023-03-02T03:13:59.984Z,67.17
2023-03-02T03:14:59.721Z,67.07
2023-03-02T03:15:59.669Z,67.27
2023-03-02T03:17:00.734Z,67.17
2023-03-02T03:17:59.665Z,67.17
2023-03-02T03:18:59.632Z,67.17
2023-03-02T03:19:59.618Z,67.07
2023-03-02T03:21:00.087Z,67.17
2023-03-02T03:22:00.633Z,67.27
2023-03-02T03:22:59.626Z,67.27
2023-03-02T03:24:01.031Z,67.17
2023-03-02T03:24:59.625Z,67.17
2023-03-02T03:25:59.560Z,67.27
2023-03-02T03:26:59.660Z,67.27
2023-03-02T03:27:59.625Z,67.38
2023-03-02T03:28:59.523Z,67.27
2023-03-02T03:29:59.505Z,67.30
2023-03-02T03:30:59.585Z,67.10
2023-03-02T03:31:59.528Z,66.99
2023-03-02T03:32:59.486Z,66.99
2023-03-02T03:33:59.459Z,66.89
2023-03-02T03:34:59.812Z,66.99
2023-03-02T03:35:59.476Z,66.99
2023-03-02T03:36:59.428Z,67.20
2023-03-02T03:37:59.610Z,67.20
2023-03-02T03:38:59.564Z,67.30
2023-03-02T03:39:59.391Z,67.41
2023-03-02T03:40:59.409Z,67.41
2023-03-02T03:41:59.380Z,67.30
2023-03-02T03:42:59.370Z,67.41
2023-03-02T03:43:59.393Z,67.27
2023-03-02T03:44:59.348Z,67.17
2023-03-02T03:45:59.378Z,67.17
2023-03-02T03:46:59.330Z,67.17
2023-03-02T03:47:59.385Z,66.96
2023-03-02T03:49:00.249Z,66.96
2023-03-02T03:49:59.308Z,66.83
2023-03-02T03:50:59.273Z,66.44
2023-03-02T03:51:59.259Z,66.23
2023-03-02T03:53:00.892Z,66.13
2023-03-02T03:53:59.233Z,66.23
2023-03-02T03:54:59.237Z,66.33
2023-03-02T03:55:59.224Z,66.54
2023-03-02T03:56:59.209Z,66.47
2023-03-02T03:57:59.211Z,66.36
2023-03-02T03:58:59.224Z,66.57
2023-03-02T03:59:59.184Z,66.68
2023-03-02T04:00:59.176Z,66.99
2023-03-02T04:01:59.262Z,67.30
2023-03-02T04:03:00.207Z,67.30
2023-03-02T04:03:59.134Z,67.61
2023-03-02T04:04:59.133Z,67.72
2023-03-02T04:05:59.206Z,67.51
2023-03-02T04:06:59.095Z,67.41
2023-03-02T04:07:59.094Z,67.30
2023-03-02T04:08:59.074Z,67.41
2023-03-02T04:09:59.066Z,67.41
2023-03-02T04:10:59.056Z,67.20
2023-03-02T04:11:59.106Z,67.20
2023-03-02T04:13:00.477Z,67.20
2023-03-02T04:13:59.043Z,67.20
2023-03-02T04:14:59.848Z,67.23
2023-03-02T04:15:59.035Z,67.44
2023-03-02T04:16:59.153Z,67.54
2023-03-02T04:17:58.979Z,67.65
2023-03-02T04:18:58.992Z,67.65
2023-03-02T04:19:58.943Z,67.54
2023-03-02T04:20:58.955Z,67.65
2023-03-02T04:21:58.931Z,67.75
2023-03-02T04:22:58.923Z,67.78
2023-03-02T04:23:58.900Z,67.88
2023-03-02T04:24:58.949Z,67.99
2023-03-02T04:25:58.866Z,68.10
2023-03-02T04:26:58.914Z,68.30
2023-03-02T04:27:59.207Z,68.30
2023-03-02T04:28:58.858Z,68.30
2023-03-02T04:29:58.832Z,68.41
2023-03-02T04:30:58.906Z,68.62
2023-03-02T04:31:58.880Z,68.62
2023-03-02T04:32:58.844Z,68.72
2023-03-02T04:33:58.804Z,68.82
2023-03-02T04:34:58.796Z,68.72
2023-03-02T04:35:58.850Z,68.62
2023-03-02T04:36:59.762Z,68.72
2023-03-02T04:37:58.781Z,68.72
2023-03-02T04:38:58.774Z,68.62
2023-03-02T04:39:58.752Z,68.62
2023-03-02T04:40:58.734Z,68.51
2023-03-02T04:41:58.714Z,68.30
2023-03-02T04:42:59.660Z,68.30
2023-03-02T04:44:00.193Z,68.30
2023-03-02T04:44:58.774Z,68.41
2023-03-02T04:45:58.693Z,68.51
2023-03-02T04:46:58.722Z,68.72
2023-03-02T04:47:58.662Z,68.62
2023-03-02T04:48:58.657Z,68.62
2023-03-02T04:49:58.674Z,68.51
2023-03-02T04:50:58.626Z,68.51
2023-03-02T04:51:58.621Z,68.41
2023-03-02T04:52:58.603Z,68.30
2023-03-02T04:53:58.595Z,68.10
2023-03-02T04:54:58.580Z,68.10
2023-03-02T04:55:58.591Z,67.99
2023-03-02T04:56:58.556Z,67.68
2023-03-02T04:57:58.582Z,67.57
2023-03-02T04:58:58.530Z,67.57
2023-03-02T04:59:58.690Z,67.57
2023-03-02T05:00:58.673Z,67.47
2023-03-02T05:01:58.541Z,67.47
2023-03-02T05:02:58.487Z,67.57
2023-03-02T05:03:58.496Z,67.47
2023-03-02T05:04:58.575Z,67.36
2023-03-02T05:05:58.471Z,67.26
2023-03-02T05:06:58.469Z,67.36
2023-03-02T05:07:58.470Z,67.26
2023-03-02T05:08:58.445Z,67.26
2023-03-02T05:09:58.430Z,67.26
2023-03-02T05:10:58.734Z,67.16
2023-03-02T05:11:58.418Z,67.16
2023-03-02T05:12:58.429Z,67.16
2023-03-02T05:13:58.378Z,67.26
2023-03-02T05:14:58.371Z,67.26
2023-03-02T05:15:58.444Z,67.13
2023-03-02T05:16:58.341Z,66.92
2023-03-02T05:17:58.338Z,66.82
2023-03-02T05:18:58.336Z,66.60
2023-03-02T05:19:58.334Z,66.50
2023-03-02T05:20:58.291Z,66.39
2023-03-02T05:21:58.282Z,66.29
2023-03-02T05:22:58.282Z,66.29
2023-03-02T05:23:58.284Z,66.29
2023-03-02T05:24:58.251Z,66.39
2023-03-02T05:25:58.254Z,66.29
2023-03-02T05:26:58.232Z,66.29
2023-03-02T05:27:58.212Z,66.29
2023-03-02T05:28:58.233Z,66.39
2023-03-02T05:29:58.219Z,66.39
2023-03-02T05:30:58.186Z,66.39
2023-03-02T05:31:58.240Z,66.39
2023-03-02T05:32:58.161Z,66.29
2023-03-02T05:33:58.155Z,66.29
2023-03-02T05:34:59.613Z,66.29
2023-03-02T05:35:58.170Z,66.29
2023-03-02T05:36:58.134Z,66.29
2023-03-02T05:37:58.139Z,66.29
2023-03-02T05:38:58.095Z,66.29
2023-03-02T05:39:58.198Z,66.29
2023-03-02T05:40:58.076Z,66.39
2023-03-02T05:41:58.081Z,66.50
2023-03-02T05:42:58.074Z,66.50
2023-03-02T05:43:58.096Z,66.50
2023-03-02T05:44:58.028Z,66.60
2023-03-02T05:45:58.048Z,66.71
2023-03-02T05:46:58.046Z,66.82
2023-03-02T05:47:58.016Z,66.71
2023-03-02T05:48:57.993Z,66.85
2023-03-02T05:49:58.011Z,66.85
2023-03-02T05:50:57.964Z,66.95
2023-03-02T05:51:57.950Z,67.16
2023-03-02T05:52:57.951Z,67.16
2023-03-02T05:53:57.955Z,67.26
2023-03-02T05:54:59.445Z,67.36
2023-03-02T05:55:57.928Z,67.36
2023-03-02T05:56:57.895Z,67.47
2023-03-02T05:57:57.899Z,67.47
2023-03-02T05:58:57.893Z,67.60
2023-03-02T05:59:57.867Z,67.81
2023-03-02T06:00:57.866Z,67.92
2023-03-02T06:01:57.880Z,68.02
2023-03-02T06:02:57.954Z,68.13
2023-03-02T06:03:57.826Z,68.33
2023-03-02T06:04:57.810Z,68.44
2023-03-02T06:05:57.793Z,68.57
2023-03-02T06:06:57.787Z,68.68
2023-03-02T06:07:57.762Z,68.78
2023-03-02T06:08:57.789Z,68.89
2023-03-02T06:09:57.772Z,68.89
2023-03-02T06:10:57.741Z,69.10
2023-03-02T06:11:57.735Z,69.20
2023-03-02T06:12:57.709Z,69.31
2023-03-02T06:13:57.721Z,69.41
2023-03-02T06:14:57.747Z,69.54
2023-03-02T06:15:57.779Z,69.65
2023-03-02T06:16:57.714Z,69.76
2023-03-02T06:17:57.682Z,69.86
2023-03-02T06:18:57.648Z,69.86
2023-03-02T06:19:57.641Z,69.86
2023-03-02T06:20:57.662Z,70.07
2023-03-02T06:21:57.612Z,70.17
2023-03-02T06:22:57.613Z,70.17
2023-03-02T06:23:57.595Z,70.17
2023-03-02T06:24:57.582Z,70.28
2023-03-02T06:25:58.486Z,70.28
2023-03-02T06:26:57.547Z,70.28
2023-03-02T06:27:57.596Z,70.28
2023-03-02T06:28:57.576Z,70.17
2023-03-02T06:29:57.519Z,70.17
2023-03-02T06:30:58.505Z,70.17
2023-03-02T06:31:58.595Z,70.28
2023-03-02T06:32:58.460Z,70.28
2023-03-02T06:33:57.507Z,70.28
2023-03-02T06:34:57.516Z,70.28
2023-03-02T06:35:57.552Z,70.38
2023-03-02T06:36:57.481Z,70.38
2023-03-02T06:37:57.442Z,70.48
2023-03-02T06:38:57.438Z,70.59
2023-03-02T06:39:57.428Z,70.59
2023-03-02T06:40:57.407Z,70.59
2023-03-02T06:41:57.416Z,70.70
2023-03-02T06:42:57.392Z,70.80
2023-03-02T06:43:57.396Z,70.80
2023-03-02T06:44:57.364Z,70.80
2023-03-02T06:45:57.390Z,70.80
2023-03-02T06:46:57.347Z,70.80
2023-03-02T06:47:57.351Z,70.70
2023-03-02T06:48:57.324Z,70.56
2023-03-02T06:49:57.302Z,70.45
2023-03-02T06:50:57.347Z,70.25
2023-03-02T06:51:57.296Z,70.14
2023-03-02T06:52:57.288Z,70.14
2023-03-02T06:53:57.264Z,70.14
2023-03-02T06:54:57.260Z,70.45
2023-03-02T06:55:57.272Z,71.19
2023-03-02T06:56:57.229Z,72.02
2023-03-02T06:57:57.213Z,72.33
2023-03-02T06:58:57.223Z,72.41
2023-03-02T06:59:57.209Z,71.98
2023-03-02T07:00:57.240Z,71.57
2023-03-02T07:01:57.185Z,71.15
2023-03-02T07:02:57.175Z,70.84
2023-03-02T07:03:57.211Z,70.63
2023-03-02T07:04:57.137Z,70.53
2023-03-02T07:05:57.168Z,70.32
2023-03-02T07:06:58.141Z,70.21
2023-03-02T07:07:57.118Z,70.11
2023-03-02T07:08:57.099Z,70.00
2023-03-02T07:09:57.100Z,69.90
2023-03-02T07:10:57.098Z,69.79
2023-03-02T07:11:58.096Z,69.69
2023-03-02T07:12:57.070Z,69.59
2023-03-02T07:13:57.085Z,69.48
2023-03-02T07:14:57.037Z,69.48
2023-03-02T07:15:57.022Z,69.48
2023-03-02T07:16:57.099Z,69.45
2023-03-02T07:17:57.006Z,69.45
2023-03-02T07:18:56.996Z,69.24
2023-03-02T07:19:56.974Z,69.24
2023-03-02T07:20:56.955Z,69.03
2023-03-02T07:21:56.950Z,68.93
2023-03-02T07:22:56.974Z,68.93
2023-03-02T07:23:56.949Z,68.82
2023-03-02T07:24:57.344Z,68.82
2023-03-02T07:25:56.926Z,68.72
2023-03-02T07:26:56.891Z,68.62
2023-03-02T07:27:57.855Z,68.62
2023-03-02T07:28:56.900Z,68.62
2023-03-02T07:29:56.897Z,68.72
2023-03-02T07:30:56.965Z,68.72
2023-03-02T07:31:56.915Z,68.72
2023-03-02T07:32:56.832Z,68.72
2023-03-02T07:33:56.846Z,68.72
2023-03-02T07:34:56.826Z,68.59
2023-03-02T07:35:56.836Z,68.59
2023-03-02T07:36:56.784Z,69.10
2023-03-02T07:37:56.774Z,70.88
2023-03-02T07:38:56.794Z,70.78
2023-03-02T07:39:58.374Z,70.43
2023-03-02T07:40:56.745Z,70.01
2023-03-02T07:41:56.726Z,69.49
2023-03-02T07:42:56.729Z,69.18
2023-03-02T07:43:56.722Z,69.38
2023-03-02T07:44:56.714Z,68.97
2023-03-02T07:45:59.459Z,68.66
2023-03-02T07:46:56.757Z,68.35
2023-03-02T07:47:56.684Z,68.10
2023-03-02T07:48:56.668Z,68.73
2023-03-02T07:49:56.676Z,69.35
2023-03-02T07:50:57.583Z,69.32
2023-03-02T07:51:56.651Z,69.29
2023-03-02T07:52:58.604Z,68.66
2023-03-02T07:53:56.614Z,68.66
2023-03-02T07:54:56.632Z,68.74
2023-03-02T07:55:56.580Z,67.70
2023-03-02T07:56:56.575Z,66.87
2023-03-02T07:57:56.553Z,65.80
2023-03-02T07:58:56.561Z,64.86
2023-03-02T07:59:56.532Z,64.14
2023-03-02T08:00:56.542Z,63.62
2023-03-02T08:01:56.605Z,63.41
2023-03-02T08:02:57.949Z,63.20
2023-03-02T08:03:56.503Z,63.20
2023-03-02T08:04:56.509Z,63.09
2023-03-02T08:05:56.482Z,62.99
2023-03-02T08:06:56.464Z,62.68
2023-03-02T08:07:57.779Z,62.47
2023-03-02T08:08:56.443Z,62.37
2023-03-02T08:09:56.432Z,62.47
2023-03-02T08:10:56.568Z,62.78
2023-03-02T08:11:57.364Z,63.82
2023-03-02T08:12:57.220Z,63.90
2023-03-02T08:13:56.399Z,63.38
2023-03-02T08:14:56.363Z,63.17
2023-03-02T08:15:56.417Z,63.07
2023-03-02T08:16:56.374Z,63.07
2023-03-02T08:17:56.351Z,62.76
2023-03-02T08:18:58.634Z,62.55
2023-03-02T08:19:56.320Z,62.65
2023-03-02T08:20:56.347Z,62.45
2023-03-02T08:21:56.423Z,62.24
2023-03-02T08:22:56.314Z,62.02
2023-03-02T08:23:56.343Z,62.02
2023-03-02T08:24:56.272Z,62.13
2023-03-02T08:25:56.279Z,62.24
2023-03-02T08:26:56.260Z,62.34
2023-03-02T08:27:56.260Z,62.45
2023-03-02T08:28:56.273Z,62.45
2023-03-02T08:29:56.213Z,62.21
2023-03-02T08:30:57.668Z,61.90
2023-03-02T08:31:56.288Z,61.61
2023-03-02T08:32:56.189Z,61.61
2023-03-02T08:33:57.315Z,61.71
2023-03-02T08:34:56.193Z,61.79
2023-03-02T08:35:56.240Z,61.79
2023-03-02T08:36:56.132Z,62.00
2023-03-02T08:37:56.170Z,62.10
2023-03-02T08:38:56.145Z,62.00
2023-03-02T08:39:58.389Z,61.90
2023-03-02T08:40:56.101Z,61.69
2023-03-02T08:41:56.899Z,61.38
2023-03-02T08:42:56.072Z,61.38
2023-03-02T08:43:57.592Z,61.17
2023-03-02T08:44:56.109Z,61.17
2023-03-02T08:45:56.100Z,61.17
2023-03-02T08:46:57.482Z,61.17
2023-03-02T08:47:56.996Z,61.27
2023-03-02T08:48:56.078Z,61.24
2023-03-02T08:49:56.240Z,61.04
2023-03-02T08:50:55.993Z,61.14
2023-03-02T08:51:55.976Z,61.14
2023-03-02T08:52:56.020Z,61.14
2023-03-02T08:53:55.977Z,61.14
2023-03-02T08:54:55.997Z,60.93
2023-03-02T08:55:56.043Z,60.93
2023-03-02T08:56:55.932Z,60.83
2023-03-02T08:57:56.163Z,60.83
2023-03-02T08:58:57.360Z,60.80
2023-03-02T08:59:56.000Z,60.80
2023-03-02T09:00:56.032Z,60.91
2023-03-02T09:01:55.860Z,60.91
2023-03-02T09:02:56.653Z,60.70
2023-03-02T09:03:56.855Z,60.39
2023-03-02T09:04:55.937Z,60.36
2023-03-02T09:05:55.847Z,60.25
2023-03-02T09:06:55.831Z,60.15
2023-03-02T09:07:56.362Z,59.84
2023-03-02T09:08:55.800Z,59.74
2023-03-02T09:09:55.885Z,59.53
2023-03-02T09:10:55.750Z,59.42
2023-03-02T09:11:55.761Z,59.30
2023-03-02T09:12:57.073Z,59.61
2023-03-02T09:13:55.765Z,60.02
2023-03-02T09:14:55.729Z,59.71
2023-03-02T09:15:55.720Z,59.40
2023-03-02T09:16:55.829Z,59.09
2023-03-02T09:17:55.691Z,59.06
2023-03-02T09:18:55.694Z,58.85
2023-03-02T09:19:56.608Z,58.64
2023-03-02T09:20:55.646Z,58.44
2023-03-02T09:21:55.638Z,58.54
2023-03-02T09:22:55.772Z,58.54
2023-03-02T09:23:55.629Z,58.54
2023-03-02T09:24:55.655Z,58.33
2023-03-02T09:25:55.603Z,58.12
2023-03-02T09:26:55.576Z,57.68
2023-03-02T09:27:55.598Z,57.58
2023-03-02T09:28:55.575Z,57.58
2023-03-02T09:29:57.006Z,57.68
2023-03-02T09:30:56.034Z,57.58
2023-03-02T09:31:55.630Z,57.06
2023-03-02T09:32:55.685Z,56.85
2023-03-02T09:33:55.525Z,56.75
2023-03-02T09:34:56.097Z,56.65
2023-03-02T09:35:55.478Z,56.73
2023-03-02T09:36:55.476Z,56.62
2023-03-02T09:37:55.514Z,56.73
2023-03-02T09:38:55.467Z,56.52
2023-03-02T09:39:55.465Z,56.41
2023-03-02T09:40:55.459Z,56.10
2023-03-02T09:41:55.401Z,55.90
2023-03-02T09:42:55.414Z,55.69
2023-03-02T09:43:55.509Z,55.25
2023-03-02T09:44:55.395Z,56.70
2023-03-02T09:45:55.481Z,59.70
2023-03-02T09:46:55.399Z,59.99
2023-03-02T09:47:55.389Z,59.16
2023-03-02T09:48:55.332Z,58.20
2023-03-02T09:49:56.808Z,58.30
2023-03-02T09:50:56.427Z,56.44
2023-03-02T09:51:55.295Z,55.20
2023-03-02T09:52:55.282Z,55.59
2023-03-02T09:53:55.273Z,55.18
2023-03-02T09:54:56.254Z,54.97
2023-03-02T09:55:55.271Z,54.55
2023-03-02T09:56:55.257Z,54.04
2023-03-02T09:57:55.452Z,54.74
2023-03-02T09:58:55.235Z,54.53
2023-03-02T09:59:55.215Z,54.43
2023-03-02T10:00:55.203Z,54.43
2023-03-02T10:01:55.208Z,54.32
2023-03-02T10:02:56.234Z,53.91
2023-03-02T10:03:55.266Z,53.16
2023-03-02T10:04:55.241Z,53.27
2023-03-02T10:05:55.158Z,53.37
2023-03-02T10:06:55.129Z,53.68
2023-03-02T10:07:55.152Z,53.27
2023-03-02T10:08:55.114Z,53.27
2023-03-02T10:09:55.087Z,53.16
2023-03-02T10:10:55.086Z,53.45
2023-03-02T10:11:55.080Z,52.83
2023-03-02T10:12:55.088Z,53.03
2023-03-02T10:13:55.044Z,53.14
2023-03-02T10:14:55.049Z,52.73
2023-03-02T10:15:55.116Z,52.29
2023-03-02T10:16:55.027Z,52.70
2023-03-02T10:17:55.035Z,52.19
2023-03-02T10:18:55.388Z,51.98
2023-03-02T10:19:55.245Z,52.08
2023-03-02T10:20:54.988Z,51.98
2023-03-02T10:21:54.970Z,51.57
2023-03-02T10:22:54.963Z,51.87
2023-03-02T10:23:54.952Z,51.78
2023-03-02T10:24:54.955Z,51.57
2023-03-02T10:25:54.909Z,51.67
2023-03-02T10:26:54.928Z,51.98
2023-03-02T10:27:54.972Z,52.19
2023-03-02T10:28:54.882Z,51.95
2023-03-02T10:29:54.911Z,51.95
2023-03-02T10:30:54.892Z,51.65
2023-03-02T10:31:54.893Z,51.54
2023-03-02T10:32:54.841Z,50.92
2023-03-02T10:33:54.812Z,50.80
2023-03-02T10:34:54.825Z,50.80
2023-03-02T10:35:54.892Z,50.28
2023-03-02T10:36:54.804Z,50.28
2023-03-02T10:37:54.774Z,50.18
2023-03-02T10:38:54.791Z,50.28
2023-03-02T10:39:54.750Z,50.38
2023-03-02T10:40:54.769Z,50.38
2023-03-02T10:41:54.852Z,50.18
2023-03-02T10:42:54.738Z,50.18
2023-03-02T10:43:54.759Z,50.08
2023-03-02T10:44:54.714Z,50.08
2023-03-02T10:45:56.259Z,49.85
2023-03-02T10:46:54.713Z,49.64
2023-03-02T10:47:54.680Z,49.44
2023-03-02T10:48:54.664Z,49.54
2023-03-02T10:49:54.651Z,49.23
2023-03-02T10:50:54.647Z,49.23
2023-03-02T10:51:54.685Z,49.54
2023-03-02T10:52:59.920Z,49.54
2023-03-02T10:53:55.671Z,49.33
2023-03-02T10:54:54.581Z,49.44
2023-03-02T10:55:54.565Z,49.44
2023-03-02T10:56:54.578Z,49.62
2023-03-02T10:57:54.573Z,49.41
2023-03-02T10:58:56.429Z,49.21
2023-03-02T10:59:54.555Z,49.31
2023-03-02T11:00:54.525Z,49.21
2023-03-02T11:01:54.553Z,49.62
2023-03-02T11:02:54.515Z,49.70
2023-03-02T11:03:54.487Z,49.39
2023-03-02T11:04:57.234Z,49.49
2023-03-02T11:05:54.459Z,49.70
2023-03-02T11:06:54.566Z,49.47
2023-03-02T11:07:54.712Z,49.47
2023-03-02T11:08:54.435Z,49.47
2023-03-02T11:09:54.436Z,49.57
2023-03-02T11:10:56.801Z,49.35
2023-03-02T11:11:55.456Z,48.52
2023-03-02T11:12:54.548Z,47.49
2023-03-02T11:13:54.393Z,47.49
2023-03-02T11:14:54.366Z,47.70
2023-03-02T11:15:54.404Z,47.60
2023-03-02T11:16:54.349Z,47.49
2023-03-02T11:17:54.352Z,47.60
2023-03-02T11:18:54.361Z,47.39
2023-03-02T11:19:54.300Z,47.19
2023-03-02T11:20:54.331Z,47.29
2023-03-02T11:21:54.291Z,47.29
2023-03-02T11:22:54.274Z,47.19
2023-03-02T11:23:54.289Z,46.98
2023-03-02T11:24:54.263Z,46.77
2023-03-02T11:25:54.255Z,46.77
2023-03-02T11:26:54.232Z,47.31
2023-03-02T11:27:54.221Z,46.98
2023-03-02T11:28:54.242Z,46.80
2023-03-02T11:29:54.194Z,46.69
2023-03-02T11:30:54.270Z,46.88
2023-03-02T11:31:54.384Z,47.08
2023-03-02T11:32:55.622Z,47.29
2023-03-02T11:33:56.168Z,47.08
2023-03-02T11:34:54.153Z,46.88
2023-03-02T11:35:54.192Z,46.88
2023-03-02T11:36:55.667Z,47.08
2023-03-02T11:37:54.108Z,47.08
2023-03-02T11:38:54.111Z,46.88
2023-03-02T11:39:55.736Z,46.88
2023-03-02T11:40:54.074Z,46.88
2023-03-02T11:41:54.950Z,46.88
2023-03-02T11:42:54.080Z,46.88
2023-03-02T11:43:54.051Z,46.77
2023-03-02T11:44:54.069Z,46.88
2023-03-02T11:45:54.029Z,46.96
2023-03-02T11:46:54.132Z,46.96
2023-03-02T11:48:02.198Z,46.96
2023-03-02T11:48:55.948Z,46.75
2023-03-02T11:49:54.005Z,46.96
2023-03-02T11:50:53.957Z,47.47
2023-03-02T11:51:58.436Z,46.83
2023-03-02T11:52:54.991Z,46.62
2023-03-02T11:53:53.950Z,46.62
2023-03-02T11:54:53.959Z,46.73
2023-03-02T11:55:54.180Z,46.62
2023-03-02T11:56:53.932Z,46.62
2023-03-02T11:57:53.903Z,46.83
2023-03-02T11:58:53.906Z,46.62
2023-03-02T11:59:53.890Z,46.50
2023-03-02T12:00:53.865Z,46.50
2023-03-02T12:01:53.923Z,46.50
2023-03-02T12:02:53.837Z,46.20
2023-03-02T12:03:53.889Z,46.30
2023-03-02T12:04:53.864Z,46.40
2023-03-02T12:05:53.816Z,46.09
2023-03-02T12:06:53.855Z,45.76
2023-03-02T12:07:53.773Z,44.84
2023-03-02T12:08:53.839Z,44.84
2023-03-02T12:09:53.791Z,45.25
2023-03-02T12:10:53.758Z,45.48
2023-03-02T12:11:53.736Z,45.48
2023-03-02T12:12:53.729Z,45.78
2023-03-02T12:13:53.716Z,45.66
2023-03-02T12:14:53.768Z,45.87
2023-03-02T12:15:53.731Z,45.87
2023-03-02T12:16:53.851Z,45.87
2023-03-02T12:17:53.706Z,45.87
2023-03-02T12:18:54.617Z,45.45
2023-03-02T12:19:53.637Z,45.23
2023-03-02T12:20:53.673Z,45.33
2023-03-02T12:21:53.632Z,45.54
2023-03-02T12:22:55.102Z,45.64
2023-03-02T12:23:53.647Z,45.51
2023-03-02T12:24:53.619Z,45.51
2023-03-02T12:25:53.581Z,45.50
2023-03-02T12:26:53.594Z,45.39
2023-03-02T12:27:55.154Z,45.17
2023-03-02T12:28:53.614Z,44.76
2023-03-02T12:29:53.530Z,44.45
2023-03-02T12:30:53.524Z,44.32
2023-03-02T12:31:53.829Z,44.23
2023-03-02T12:32:53.517Z,43.91
2023-03-02T12:33:53.498Z,43.69
2023-03-02T12:34:54.251Z,43.59
2023-03-02T12:35:53.462Z,43.57
2023-03-02T12:36:53.589Z,43.57
2023-03-02T12:37:53.474Z,43.55
2023-03-02T12:38:53.457Z,42.91
2023-03-02T12:39:53.434Z,42.61
2023-03-02T12:40:53.448Z,42.59
2023-03-02T12:41:53.498Z,43.06
2023-03-02T12:42:53.464Z,43.44
2023-03-02T12:43:53.567Z,43.12
2023-03-02T12:44:53.427Z,42.49
2023-03-02T12:45:53.505Z,41.53
2023-03-02T12:46:53.388Z,40.60
2023-03-02T12:47:53.519Z,40.27
2023-03-02T12:48:53.596Z,39.87
2023-03-02T12:49:53.309Z,39.34
2023-03-02T12:50:53.298Z,38.73
2023-03-02T12:51:53.426Z,38.61